Time;durP1;ratioP1;P1;durP2;ratioP2;P2;SDS_P1;SDS_P2;PMS_P1;PMS_P2;Temp;Humidity;BMP_temperature;BMP_pressure;BME280_temperature;BME280_humidity;BME280_pressure;Samples;Min_cycle;Max_cycle;Signal;HPM_P1;HPM_P2
2021/12/29 00:02:10;;;;;;;10.20;8.15;;;;;;;;;;4866087;29;34107;-65
2021/12/29 00:04:38;;;;;;;12.43;8.43;;;;;;;;;;4866695;29;32773;-65
2021/12/29 00:07:06;;;;;;;9.02;8.20;;;;;;;;;;4866776;29;32558;-66
2021/12/29 00:09:37;;;;;;;9.55;8.52;;;;;;;;;;4868696;29;32290;-66
2021/12/29 00:12:07;;;;;;;8.70;7.90;;;;;;;;;;4868590;29;35279;-66
2021/12/29 00:14:35;;;;;;;10.73;8.18;;;;;;;;;;4868782;29;32206;-66
2021/12/29 00:17:04;;;;;;;10.93;8.38;;;;;;;;;;4862257;29;32297;-67
2021/12/29 00:19:32;;;;;;;8.88;7.65;;;;;;;;;;4849752;29;32740;-66
2021/12/29 00:22:00;;;;;;;14.13;8.27;;;;;;;;;;4850197;29;32317;-65
2021/12/29 00:24:28;;;;;;;12.10;7.53;;;;;;;;;;4854377;29;34512;-66
2021/12/29 00:26:57;;;;;;;9.02;8.02;;;;;;;;;;4868816;29;32363;-66
2021/12/29 00:29:25;;;;;;;9.02;7.32;;;;;;;;;;4859779;29;32272;-67
2021/12/29 00:31:53;;;;;;;9.75;7.90;;;;;;;;;;4849708;29;32441;-66
2021/12/29 00:34:21;;;;;;;8.30;7.57;;;;;;;;;;4850063;29;35732;-67
2021/12/29 00:36:49;;;;;;;10.77;8.75;;;;;;;;;;4849435;29;32540;-67
2021/12/29 00:39:17;;;;;;;8.52;7.65;;;;;;;;;;4858402;29;32384;-66
2021/12/29 00:41:44;;;;;;;8.40;7.43;;;;;;;;;;4868604;29;32681;-65
2021/12/29 00:44:14;;;;;;;9.73;8.45;;;;;;;;;;4868595;29;32328;-69
2021/12/29 00:46:42;;;;;;;10.90;8.40;;;;;;;;;;4868243;29;34018;-66
2021/12/29 00:49:10;;;;;;;9.73;7.68;;;;;;;;;;4868301;29;32351;-67
2021/12/29 00:51:38;;;;;;;10.73;8.50;;;;;;;;;;4868402;29;32288;-65
2021/12/29 00:54:06;;;;;;;10.20;8.25;;;;;;;;;;4861882;29;32348;-64
2021/12/29 00:56:34;;;;;;;9.90;8.55;;;;;;;;;;4849758;29;34785;-68
2021/12/29 00:59:02;;;;;;;11.98;8.07;;;;;;;;;;4849401;29;32357;-68
2021/12/29 01:01:31;;;;;;;9.85;8.77;;;;;;;;;;4849357;29;32431;-68
2021/12/29 01:03:59;;;;;;;8.98;8.10;;;;;;;;;;4849081;29;32434;-65
2021/12/29 01:06:27;;;;;;;9.15;7.80;;;;;;;;;;4849690;29;32343;-65
2021/12/29 01:08:55;;;;;;;8.75;7.88;;;;;;;;;;4849119;29;34579;-65
2021/12/29 01:11:23;;;;;;;10.82;8.15;;;;;;;;;;4848875;29;32502;-65
2021/12/29 01:13:51;;;;;;;12.45;8.52;;;;;;;;;;4848902;29;32375;-67
2021/12/29 01:16:38;;;;;;;9.07;7.95;;;;;;;;;;4849248;29;32268;-65
2021/12/29 01:19:12;;;;;;;11.07;7.65;;;;;;;;;;4848911;29;34684;-66
2021/12/29 01:21:43;;;;;;;10.60;8.52;;;;;;;;;;4849744;29;32365;-65
2021/12/29 01:24:12;;;;;;;11.02;9.05;;;;;;;;;;4848472;29;32682;-65
2021/12/29 01:26:42;;;;;;;10.95;8.30;;;;;;;;;;4848865;29;32404;-65
2021/12/29 01:29:11;;;;;;;9.65;8.13;;;;;;;;;;4849343;29;32390;-68
2021/12/29 01:31:39;;;;;;;10.07;8.73;;;;;;;;;;4848030;29;35986;-67
2021/12/29 01:34:08;;;;;;;8.73;7.82;;;;;;;;;;4849204;29;32431;-66
2021/12/29 01:36:38;;;;;;;9.18;7.93;;;;;;;;;;4848675;29;32330;-64
2021/12/29 01:39:10;;;;;;;10.60;8.25;;;;;;;;;;4849054;29;32355;-68
2021/12/29 01:41:39;;;;;;;10.52;8.38;;;;;;;;;;4849018;29;34699;-65
2021/12/29 01:44:08;;;;;;;12.70;8.40;;;;;;;;;;4849137;29;32561;-65
2021/12/29 01:46:36;;;;;;;9.80;8.57;;;;;;;;;;4848685;29;32414;-68
2021/12/29 01:49:05;;;;;;;12.82;8.77;;;;;;;;;;4849032;29;32493;-65
2021/12/29 01:51:35;;;;;;;10.00;9.00;;;;;;;;;;4848656;29;32446;-65
2021/12/29 01:54:15;;;;;;;8.85;7.95;;;;;;;;;;4848453;29;34922;-65
2021/12/29 01:56:46;;;;;;;10.57;8.60;;;;;;;;;;4849159;29;32537;-65
2021/12/29 01:59:16;;;;;;;11.88;9.27;;;;;;;;;;4849011;29;32464;-67
2021/12/29 02:01:44;;;;;;;9.40;7.68;;;;;;;;;;4849028;29;32261;-66
2021/12/29 02:04:12;;;;;;;9.45;8.40;;;;;;;;;;4848347;29;34459;-68
2021/12/29 02:06:42;;;;;;;14.35;8.50;;;;;;;;;;4848358;29;32482;-65
2021/12/29 02:09:10;;;;;;;9.60;8.23;;;;;;;;;;4848922;29;32589;-66
2021/12/29 02:11:42;;;;;;;10.18;8.45;;;;;;;;;;4848644;29;32182;-65
2021/12/29 02:14:10;;;;;;;9.73;8.25;;;;;;;;;;4848854;29;32332;-66
2021/12/29 02:16:39;;;;;;;9.60;8.77;;;;;;;;;;4847960;29;35829;-66
2021/12/29 02:19:10;;;;;;;9.80;8.13;;;;;;;;;;4848370;29;32502;-64
2021/12/29 02:21:43;;;;;;;12.93;9.73;;;;;;;;;;4861999;29;32285;-65
2021/12/29 02:24:20;;;;;;;11.50;8.95;;;;;;;;;;4846542;29;32388;-66
2021/12/29 02:26:49;;;;;;;9.75;8.13;;;;;;;;;;4845945;29;34749;-64
2021/12/29 02:29:19;;;;;;;9.73;8.82;;;;;;;;;;4848213;29;32462;-65
2021/12/29 02:31:48;;;;;;;14.60;8.50;;;;;;;;;;4860103;29;32375;-64
2021/12/29 02:34:17;;;;;;;10.57;9.57;;;;;;;;;;4867432;29;32283;-64
2021/12/29 02:36:47;;;;;;;12.60;9.20;;;;;;;;;;4867070;29;32462;-64
2021/12/29 02:39:19;;;;;;;10.13;8.52;;;;;;;;;;4866029;29;32534;-65
2021/12/29 02:41:52;;;;;;;11.10;8.77;;;;;;;;;;4867286;29;32351;-65
2021/12/29 02:44:25;;;;;;;10.25;9.25;;;;;;;;;;4866799;29;32394;-63
2021/12/29 02:46:54;;;;;;;16.08;9.73;;;;;;;;;;4867491;29;32342;-65
2021/12/29 02:49:23;;;;;;;14.02;9.55;;;;;;;;;;4855352;29;35038;-64
2021/12/29 02:51:53;;;;;;;13.63;10.77;;;;;;;;;;4856790;29;32452;-64
2021/12/29 02:54:21;;;;;;;15.38;11.15;;;;;;;;;;4857351;29;32283;-66
2021/12/29 02:56:54;;;;;;;19.52;11.40;;;;;;;;;;4856307;29;32415;-65
2021/12/29 02:59:23;;;;;;;22.15;11.90;;;;;;;;;;4856007;29;32536;-67
2021/12/29 03:01:52;;;;;;;20.17;12.15;;;;;;;;;;4856514;29;32284;-67
2021/12/29 03:04:20;;;;;;;17.98;11.27;;;;;;;;;;4852777;29;32346;-66
2021/12/29 03:06:48;;;;;;;17.60;10.93;;;;;;;;;;4847979;29;32215;-66
2021/12/29 03:09:18;;;;;;;19.05;11.73;;;;;;;;;;4847770;29;32328;-63
2021/12/29 03:11:47;;;;;;;15.65;11.48;;;;;;;;;;4847492;29;34496;-66
2021/12/29 03:14:17;;;;;;;14.60;11.07;;;;;;;;;;4847607;29;32356;-66
2021/12/29 03:16:45;;;;;;;18.27;11.35;;;;;;;;;;4848087;29;32641;-63
2021/12/29 03:19:13;;;;;;;16.95;10.80;;;;;;;;;;4847745;29;32415;-68
2021/12/29 03:21:42;;;;;;;13.35;10.57;;;;;;;;;;4849125;29;33036;-66
2021/12/29 03:24:10;;;;;;;14.50;11.10;;;;;;;;;;4866188;29;32342;-67
2021/12/29 03:26:39;;;;;;;14.60;11.23;;;;;;;;;;4865986;29;32434;-65
2021/12/29 03:29:08;;;;;;;10.63;9.52;;;;;;;;;;4866004;29;32501;-65
2021/12/29 03:31:38;;;;;;;17.48;11.23;;;;;;;;;;4865357;29;32457;-66
2021/12/29 03:34:07;;;;;;;13.43;10.77;;;;;;;;;;4867925;29;33926;-64
2021/12/29 03:36:35;;;;;;;14.80;11.07;;;;;;;;;;4868712;29;32547;-66
2021/12/29 03:39:04;;;;;;;13.30;10.52;;;;;;;;;;4868201;29;32445;-64
2021/12/29 03:41:32;;;;;;;17.58;11.65;;;;;;;;;;4868455;29;32393;-66
2021/12/29 03:44:01;;;;;;;17.02;10.95;;;;;;;;;;4867127;29;32753;-65
2021/12/29 03:46:30;;;;;;;14.45;11.52;;;;;;;;;;4869007;29;32678;-66
2021/12/29 03:48:58;;;;;;;18.13;12.43;;;;;;;;;;4866713;29;32317;-65
2021/12/29 03:51:26;;;;;;;19.95;11.30;;;;;;;;;;4867391;29;32273;-63
2021/12/29 03:53:53;;;;;;;18.27;11.90;;;;;;;;;;4868321;29;32284;-64
2021/12/29 03:56:21;;;;;;;18.08;10.85;;;;;;;;;;4866858;29;34512;-68
2021/12/29 03:58:49;;;;;;;21.75;11.48;;;;;;;;;;4868051;29;32864;-66
2021/12/29 04:01:20;;;;;;;17.88;11.98;;;;;;;;;;4869049;29;32295;-67
2021/12/29 04:03:48;;;;;;;17.08;11.93;;;;;;;;;;4868511;29;32438;-68
2021/12/29 04:06:18;;;;;;;17.83;11.15;;;;;;;;;;4869227;29;32433;-64
2021/12/29 04:08:46;;;;;;;14.48;11.07;;;;;;;;;;4868476;29;32279;-65
2021/12/29 04:11:15;;;;;;;17.70;12.27;;;;;;;;;;4868595;29;32362;-64
2021/12/29 04:13:47;;;;;;;18.52;12.55;;;;;;;;;;4868719;29;32197;-63
2021/12/29 04:16:17;;;;;;;24.63;13.65;;;;;;;;;;4869024;29;32364;-64
2021/12/29 04:19:06;;;;;;;21.13;12.63;;;;;;;;;;4859379;29;34348;-64
2021/12/29 04:21:35;;;;;;;26.95;14.23;;;;;;;;;;4847675;29;32175;-66
2021/12/29 04:24:03;;;;;;;20.63;13.70;;;;;;;;;;4847101;29;32372;-62
2021/12/29 04:26:33;;;;;;;26.83;14.98;;;;;;;;;;4848711;29;32363;-65
2021/12/29 04:29:01;;;;;;;23.77;14.90;;;;;;;;;;4850301;29;32374;-68
2021/12/29 04:31:28;;;;;;;22.08;14.93;;;;;;;;;;4849337;29;32295;-68
2021/12/29 04:33:58;;;;;;;28.95;15.27;;;;;;;;;;4849663;29;32310;-64
2021/12/29 04:36:26;;;;;;;29.08;14.63;;;;;;;;;;4850082;29;32186;-67
2021/12/29 04:38:57;;;;;;;23.42;14.48;;;;;;;;;;4850335;29;32368;-64
2021/12/29 04:41:25;;;;;;;33.73;15.23;;;;;;;;;;4849551;29;34979;-64
2021/12/29 04:43:53;;;;;;;25.38;14.50;;;;;;;;;;4849473;29;32971;-69
2021/12/29 04:46:27;;;;;;;28.15;14.25;;;;;;;;;;4848936;29;32449;-65
2021/12/29 04:49:01;;;;;;;29.67;15.00;;;;;;;;;;4849939;29;32390;-65
2021/12/29 04:51:35;;;;;;;25.20;14.45;;;;;;;;;;4849204;29;34729;-68
2021/12/29 04:54:05;;;;;;;32.28;15.52;;;;;;;;;;4849012;29;32504;-65
2021/12/29 04:56:33;;;;;;;29.58;15.70;;;;;;;;;;4849467;29;32218;-65
2021/12/29 04:59:01;;;;;;;26.42;15.52;;;;;;;;;;4849362;29;32434;-65
2021/12/29 05:01:29;;;;;;;24.58;15.20;;;;;;;;;;4849292;29;32549;-65
2021/12/29 05:03:59;;;;;;;25.60;15.25;;;;;;;;;;4849226;29;34194;-67
2021/12/29 05:09:11;;;;;;;26.83;14.32;;;;;;;;;;4849007;29;32269;-66
2021/12/29 05:11:39;;;;;;;24.88;14.70;;;;;;;;;;4849222;29;32589;-62
2021/12/29 05:14:07;;;;;;;26.05;15.48;;;;;;;;;;4849274;29;34028;-64
2021/12/29 05:16:35;;;;;;;27.33;14.80;;;;;;;;;;4849329;29;32422;-66
2021/12/29 05:19:05;;;;;;;29.58;15.23;;;;;;;;;;4848753;29;32281;-67
2021/12/29 05:21:33;;;;;;;23.73;14.35;;;;;;;;;;4848978;29;32413;-63
2021/12/29 05:24:01;;;;;;;21.52;14.40;;;;;;;;;;4867374;29;32383;-64
2021/12/29 05:26:28;;;;;;;25.70;15.93;;;;;;;;;;4858123;29;35273;-68
2021/12/29 05:28:57;;;;;;;28.00;14.93;;;;;;;;;;4849114;29;32416;-63
2021/12/29 05:31:26;;;;;;;24.08;15.00;;;;;;;;;;4848750;29;32401;-64
2021/12/29 05:33:55;;;;;;;24.52;15.68;;;;;;;;;;4848750;29;32337;-63
2021/12/29 05:36:24;;;;;;;28.55;15.95;;;;;;;;;;4848936;29;34638;-64
2021/12/29 05:38:53;;;;;;;25.50;15.07;;;;;;;;;;4848909;29;32416;-64
2021/12/29 05:41:22;;;;;;;29.80;16.17;;;;;;;;;;4848897;29;32465;-65
2021/12/29 05:43:50;;;;;;;27.67;15.85;;;;;;;;;;4848989;29;32438;-65
2021/12/29 05:46:18;;;;;;;29.17;15.43;;;;;;;;;;4849354;29;32230;-66
2021/12/29 05:48:47;;;;;;;26.77;14.90;;;;;;;;;;4848683;29;34644;-65
2021/12/29 05:51:15;;;;;;;24.33;15.02;;;;;;;;;;4848921;29;32437;-66
2021/12/29 05:53:45;;;;;;;32.67;16.38;;;;;;;;;;4848293;29;32293;-66
2021/12/29 05:56:13;;;;;;;33.08;16.98;;;;;;;;;;4848499;29;32571;-66
2021/12/29 05:58:41;;;;;;;29.70;16.35;;;;;;;;;;4848329;29;34014;-64
2021/12/29 06:01:10;;;;;;;27.60;16.23;;;;;;;;;;4847499;29;32379;-68
2021/12/29 06:03:38;;;;;;;40.33;17.33;;;;;;;;;;4859618;29;32308;-64
2021/12/29 06:06:06;;;;;;;31.30;17.00;;;;;;;;;;4865734;29;32428;-65
2021/12/29 06:08:34;;;;;;;27.40;16.75;;;;;;;;;;4867443;29;32428;-65
2021/12/29 06:11:03;;;;;;;29.45;16.98;;;;;;;;;;4865755;29;34589;-64
2021/12/29 06:13:31;;;;;;;33.38;16.80;;;;;;;;;;4866978;29;32368;-66
2021/12/29 06:15:59;;;;;;;34.53;18.27;;;;;;;;;;4867150;29;32343;-66
2021/12/29 06:18:27;;;;;;;34.47;16.35;;;;;;;;;;4867460;29;32386;-66
2021/12/29 06:20:56;;;;;;;33.05;18.08;;;;;;;;;;4866408;29;34935;-64
2021/12/29 06:23:24;;;;;;;29.05;18.02;;;;;;;;;;4866050;29;32675;-68
2021/12/29 06:25:52;;;;;;;35.40;19.48;;;;;;;;;;4866833;29;32369;-67
2021/12/29 06:28:21;;;;;;;36.58;19.30;;;;;;;;;;4865858;29;32535;-66
2021/12/29 06:30:49;;;;;;;43.30;20.88;;;;;;;;;;4866573;29;32225;-67
2021/12/29 06:33:17;;;;;;;39.17;20.35;;;;;;;;;;4866444;29;34699;-67
2021/12/29 06:35:45;;;;;;;40.50;20.23;;;;;;;;;;4867474;29;32253;-66
2021/12/29 06:38:13;;;;;;;40.63;20.50;;;;;;;;;;4866313;29;32326;-65
2021/12/29 06:40:41;;;;;;;39.78;20.55;;;;;;;;;;4867260;29;32287;-67
2021/12/29 06:43:09;;;;;;;41.22;21.33;;;;;;;;;;4866674;29;35491;-65
2021/12/29 06:45:38;;;;;;;37.58;20.95;;;;;;;;;;4866534;29;32335;-66
2021/12/29 06:48:07;;;;;;;36.60;20.15;;;;;;;;;;4867006;29;32285;-64
2021/12/29 06:50:35;;;;;;;35.75;20.80;;;;;;;;;;4866104;29;32577;-67
2021/12/29 06:53:03;;;;;;;39.70;20.40;;;;;;;;;;4864788;29;32270;-64
2021/12/29 06:55:31;;;;;;;39.55;19.58;;;;;;;;;;4866526;29;35342;-66
2021/12/29 06:57:59;;;;;;;38.03;19.55;;;;;;;;;;4866609;29;32493;-67
2021/12/29 07:00:27;;;;;;;36.35;19.90;;;;;;;;;;4866524;29;32727;-66
2021/12/29 07:02:57;;;;;;;31.27;19.58;;;;;;;;;;4866657;29;32802;-66
2021/12/29 07:05:25;;;;;;;32.38;19.45;;;;;;;;;;4866732;29;34043;-66
2021/12/29 07:07:54;;;;;;;33.92;19.83;;;;;;;;;;4866179;29;32461;-68
2021/12/29 07:10:22;;;;;;;32.42;18.45;;;;;;;;;;4866482;29;32426;-64
2021/12/29 07:12:50;;;;;;;32.60;19.25;;;;;;;;;;4866173;29;32097;-66
2021/12/29 07:15:18;;;;;;;30.08;19.40;;;;;;;;;;4866871;29;32331;-66
2021/12/29 07:17:46;;;;;;;34.90;19.80;;;;;;;;;;4865706;29;34733;-67
2021/12/29 07:20:16;;;;;;;32.47;19.08;;;;;;;;;;4866545;29;32134;-65
2021/12/29 07:22:44;;;;;;;32.88;18.88;;;;;;;;;;4865868;29;32440;-66
2021/12/29 07:25:12;;;;;;;32.83;19.00;;;;;;;;;;4865962;29;32314;-66
2021/12/29 07:27:40;;;;;;;32.97;19.20;;;;;;;;;;4865954;29;34975;-65
2021/12/29 07:30:11;;;;;;;34.63;18.48;;;;;;;;;;4865865;29;32421;-65
2021/12/29 07:32:39;;;;;;;27.13;18.77;;;;;;;;;;4866003;29;32520;-65
2021/12/29 07:35:08;;;;;;;31.35;18.98;;;;;;;;;;4865989;29;32343;-65
2021/12/29 07:37:38;;;;;;;30.38;17.98;;;;;;;;;;4866047;29;32343;-62
2021/12/29 07:40:08;;;;;;;32.53;18.80;;;;;;;;;;4865574;29;34441;-68
2021/12/29 07:42:38;;;;;;;34.00;19.63;;;;;;;;;;4865496;29;32283;-66
2021/12/29 07:45:08;;;;;;;30.23;18.88;;;;;;;;;;4865391;29;32312;-64
2021/12/29 07:47:39;;;;;;;30.03;19.13;;;;;;;;;;4866184;29;32429;-65
2021/12/29 07:50:09;;;;;;;28.13;19.17;;;;;;;;;;4865843;29;33936;-64
2021/12/29 07:52:40;;;;;;;33.28;20.23;;;;;;;;;;4864506;29;53478;-67
2021/12/29 07:55:09;;;;;;;30.27;19.80;;;;;;;;;;4865816;29;32087;-66
2021/12/29 07:57:37;;;;;;;32.47;19.92;;;;;;;;;;4865616;29;32311;-67
2021/12/29 08:00:07;;;;;;;35.13;21.90;;;;;;;;;;4865533;29;32348;-65
2021/12/29 08:02:37;;;;;;;30.25;18.95;;;;;;;;;;4865313;29;34449;-64
2021/12/29 08:05:06;;;;;;;35.85;19.80;;;;;;;;;;4865460;29;32268;-65
2021/12/29 08:07:35;;;;;;;24.77;17.92;;;;;;;;;;4865624;29;32304;-66
2021/12/29 08:10:06;;;;;;;33.42;18.67;;;;;;;;;;4865400;29;32397;-68
2021/12/29 08:12:34;;;;;;;29.90;18.35;;;;;;;;;;4865166;29;36149;-66
2021/12/29 08:15:01;;;;;;;29.73;19.60;;;;;;;;;;4865529;29;32118;-66
2021/12/29 08:17:32;;;;;;;33.33;19.80;;;;;;;;;;4863273;29;32210;-63
2021/12/29 08:20:00;;;;;;;30.27;18.83;;;;;;;;;;4846580;29;32454;-65
2021/12/29 08:22:29;;;;;;;31.27;19.27;;;;;;;;;;4849753;29;32482;-66
2021/12/29 08:24:57;;;;;;;29.90;19.00;;;;;;;;;;4849466;29;34952;-65
2021/12/29 08:27:27;;;;;;;29.27;18.35;;;;;;;;;;4849873;29;32384;-66
2021/12/29 08:29:55;;;;;;;40.10;19.17;;;;;;;;;;4849585;29;32428;-65
2021/12/29 08:32:23;;;;;;;31.35;19.45;;;;;;;;;;4849404;29;32317;-66
2021/12/29 08:34:51;;;;;;;29.55;18.55;;;;;;;;;;4848819;29;34596;-64
2021/12/29 08:37:19;;;;;;;32.58;19.25;;;;;;;;;;4849219;29;32394;-64
2021/12/29 08:39:47;;;;;;;30.13;19.10;;;;;;;;;;4849512;29;32398;-66
2021/12/29 08:42:14;;;;;;;30.50;19.00;;;;;;;;;;4849381;29;32322;-67
2021/12/29 08:44:44;;;;;;;24.98;18.23;;;;;;;;;;4849545;29;32289;-66
2021/12/29 08:47:12;;;;;;;28.52;18.58;;;;;;;;;;4848766;29;34074;-67
2021/12/29 08:49:40;;;;;;;32.47;18.38;;;;;;;;;;4848786;29;32206;-65
2021/12/29 08:52:08;;;;;;;34.45;18.77;;;;;;;;;;4848240;29;32316;-65
2021/12/29 08:54:37;;;;;;;31.00;18.55;;;;;;;;;;4848880;29;32486;-68
2021/12/29 08:57:06;;;;;;;26.67;18.45;;;;;;;;;;4848631;29;35073;-65
2021/12/29 08:59:34;;;;;;;30.63;18.65;;;;;;;;;;4848209;29;32107;-66
2021/12/29 09:02:03;;;;;;;28.50;18.55;;;;;;;;;;4848826;29;32285;-65
2021/12/29 09:04:31;;;;;;;28.40;17.48;;;;;;;;;;4849039;29;32118;-64
2021/12/29 09:06:59;;;;;;;28.23;18.10;;;;;;;;;;4849084;29;32182;-64
2021/12/29 09:09:27;;;;;;;26.55;17.20;;;;;;;;;;4848801;29;34885;-64
2021/12/29 09:11:55;;;;;;;34.28;18.98;;;;;;;;;;4848785;29;32534;-65
2021/12/29 09:14:23;;;;;;;31.10;18.80;;;;;;;;;;4849091;29;32351;-67
2021/12/29 09:16:51;;;;;;;31.80;18.25;;;;;;;;;;4849342;29;32134;-64
2021/12/29 09:19:22;;;;;;;31.38;19.42;;;;;;;;;;4849064;29;34014;-69
2021/12/29 09:21:53;;;;;;;23.50;17.65;;;;;;;;;;4849285;29;32253;-65
2021/12/29 09:24:21;;;;;;;27.10;17.65;;;;;;;;;;4849102;29;32743;-65
2021/12/29 09:26:50;;;;;;;29.23;18.58;;;;;;;;;;4849162;29;32297;-67
2021/12/29 09:29:18;;;;;;;28.63;18.98;;;;;;;;;;4849050;29;32352;-65
2021/12/29 09:31:46;;;;;;;29.90;19.02;;;;;;;;;;4848177;29;35313;-65
2021/12/29 09:34:13;;;;;;;32.35;20.27;;;;;;;;;;4848536;29;32567;-65
2021/12/29 09:36:43;;;;;;;30.50;19.02;;;;;;;;;;4848869;29;32447;-64
2021/12/29 09:39:11;;;;;;;35.60;19.52;;;;;;;;;;4848416;29;32270;-68
2021/12/29 09:41:39;;;;;;;33.95;20.08;;;;;;;;;;4848343;29;34992;-68
2021/12/29 09:44:09;;;;;;;32.70;19.42;;;;;;;;;;4848344;29;32448;-69
2021/12/29 09:46:37;;;;;;;34.17;19.77;;;;;;;;;;4849433;29;32462;-66
2021/12/29 09:49:05;;;;;;;32.83;20.30;;;;;;;;;;4847190;29;32414;-68
2021/12/29 09:51:33;;;;;;;29.40;20.50;;;;;;;;;;4846691;29;32543;-65
2021/12/29 09:54:03;;;;;;;26.77;18.10;;;;;;;;;;4847901;29;35652;-67
2021/12/29 09:56:31;;;;;;;37.55;20.20;;;;;;;;;;4848384;29;32410;-64
2021/12/29 09:58:59;;;;;;;31.15;19.38;;;;;;;;;;4848218;29;32341;-64
2021/12/29 10:01:27;;;;;;;26.63;18.33;;;;;;;;;;4848756;29;32504;-66
2021/12/29 10:03:55;;;;;;;30.17;20.08;;;;;;;;;;4848102;29;34074;-68
2021/12/29 10:06:24;;;;;;;31.58;18.55;;;;;;;;;;4847003;29;32807;-66
2021/12/29 10:08:53;;;;;;;30.05;19.08;;;;;;;;;;4848330;29;32384;-66
2021/12/29 10:11:36;;;;;;;27.23;18.58;;;;;;;;;;4848594;29;32550;-65
2021/12/29 10:14:09;;;;;;;32.42;20.00;;;;;;;;;;4848640;29;32431;-65
2021/12/29 10:16:38;;;;;;;30.42;19.17;;;;;;;;;;4847847;29;35214;-68
2021/12/29 10:19:08;;;;;;;33.65;20.13;;;;;;;;;;4848005;29;32442;-64
2021/12/29 10:21:37;;;;;;;33.90;19.63;;;;;;;;;;4848926;29;32431;-65
2021/12/29 10:24:06;;;;;;;25.88;18.23;;;;;;;;;;4848173;29;32398;-65
2021/12/29 10:26:39;;;;;;;31.95;18.98;;;;;;;;;;4848468;29;34269;-67
2021/12/29 10:29:11;;;;;;;31.90;18.75;;;;;;;;;;4848165;29;32257;-67
2021/12/29 10:31:45;;;;;;;33.95;19.88;;;;;;;;;;4848248;29;32301;-64
2021/12/29 10:34:17;;;;;;;35.40;19.75;;;;;;;;;;4847795;29;32448;-64
2021/12/29 10:36:49;;;;;;;31.48;18.77;;;;;;;;;;4848114;29;32295;-69
2021/12/29 10:39:20;;;;;;;31.95;19.38;;;;;;;;;;4847731;29;33940;-65
2021/12/29 10:41:55;;;;;;;39.20;19.88;;;;;;;;;;4848054;29;32467;-66
2021/12/29 10:44:33;;;;;;;31.48;19.55;;;;;;;;;;4847702;29;32288;-66
2021/12/29 10:47:04;;;;;;;32.53;19.98;;;;;;;;;;4848086;29;32410;-65
2021/12/29 10:49:32;;;;;;;31.52;20.58;;;;;;;;;;4847525;29;34160;-65
2021/12/29 10:52:00;;;;;;;42.40;20.02;;;;;;;;;;4847484;29;32301;-65
2021/12/29 10:54:30;;;;;;;32.75;19.60;;;;;;;;;;4847054;29;32345;-64
2021/12/29 10:57:05;;;;;;;32.47;20.15;;;;;;;;;;4847494;29;32242;-63
2021/12/29 10:59:37;;;;;;;30.10;18.83;;;;;;;;;;4847729;29;32510;-65
2021/12/29 11:02:08;;;;;;;34.95;19.77;;;;;;;;;;4852238;29;35605;-64
2021/12/29 11:04:36;;;;;;;29.85;18.13;;;;;;;;;;4866156;29;32292;-66
2021/12/29 11:07:07;;;;;;;33.33;19.45;;;;;;;;;;4865195;29;32309;-66
2021/12/29 11:09:37;;;;;;;25.73;17.63;;;;;;;;;;4866708;29;32354;-64
2021/12/29 11:12:15;;;;;;;45.40;18.45;;;;;;;;;;4866177;29;35701;-66
2021/12/29 11:14:43;;;;;;;32.25;19.17;;;;;;;;;;4866195;29;32540;-65
2021/12/29 11:17:16;;;;;;;38.10;19.00;;;;;;;;;;4866030;29;32333;-64
2021/12/29 11:19:51;;;;;;;30.00;18.45;;;;;;;;;;4866139;29;32472;-64
2021/12/29 11:22:22;;;;;;;29.38;18.33;;;;;;;;;;4866542;29;32311;-67
2021/12/29 11:24:57;;;;;;;30.43;17.73;;;;;;;;;;4865629;29;34695;-65
2021/12/29 11:27:28;;;;;;;37.75;18.80;;;;;;;;;;4865890;29;32416;-64
2021/12/29 11:29:59;;;;;;;27.27;16.57;;;;;;;;;;4866104;29;32303;-69
2021/12/29 11:32:30;;;;;;;24.50;17.55;;;;;;;;;;4866047;29;32390;-66
2021/12/29 11:35:01;;;;;;;36.85;17.63;;;;;;;;;;4866331;29;35078;-66
2021/12/29 11:37:31;;;;;;;23.88;15.55;;;;;;;;;;4865989;29;32417;-64
2021/12/29 11:39:59;;;;;;;24.38;15.63;;;;;;;;;;4865785;29;32339;-64
2021/12/29 11:42:28;;;;;;;21.98;16.27;;;;;;;;;;4866315;29;32367;-65
2021/12/29 11:44:56;;;;;;;23.10;15.80;;;;;;;;;;4866062;29;32429;-65
2021/12/29 11:47:24;;;;;;;36.22;17.08;;;;;;;;;;4865770;29;34940;-67
2021/12/29 11:49:52;;;;;;;22.50;15.45;;;;;;;;;;4865965;29;32299;-64
2021/12/29 11:52:39;;;;;;;30.25;16.00;;;;;;;;;;4865772;29;32517;-65
2021/12/29 11:55:13;;;;;;;28.30;15.30;;;;;;;;;;4868068;29;32426;-66
2021/12/29 11:57:43;;;;;;;26.55;15.88;;;;;;;;;;4868316;29;35530;-68
2021/12/29 12:00:17;;;;;;;30.00;17.10;;;;;;;;;;4868610;29;32304;-66
2021/12/29 12:02:46;;;;;;;20.35;15.70;;;;;;;;;;4868528;29;32366;-69
2021/12/29 12:05:17;;;;;;;23.45;15.68;;;;;;;;;;4868781;29;32271;-67
2021/12/29 12:07:45;;;;;;;26.10;15.52;;;;;;;;;;4850701;29;32301;-65
2021/12/29 12:10:33;;;;;;;26.35;15.20;;;;;;;;;;4849705;29;35219;-65
2021/12/29 12:13:04;;;;;;;22.45;16.42;;;;;;;;;;4847941;29;32452;-69
2021/12/29 12:15:36;;;;;;;27.83;15.73;;;;;;;;;;4849836;29;32585;-65
2021/12/29 12:18:07;;;;;;;23.40;15.50;;;;;;;;;;4850440;29;32442;-67
2021/12/29 12:20:44;;;;;;;36.78;16.95;;;;;;;;;;4849944;29;35302;-65
2021/12/29 12:23:24;;;;;;;35.65;16.83;;;;;;;;;;4849815;29;32383;-65
2021/12/29 12:25:53;;;;;;;29.48;15.52;;;;;;;;;;4852933;29;32391;-65
2021/12/29 12:28:24;;;;;;;33.33;17.50;;;;;;;;;;4868856;29;32280;-66
2021/12/29 12:30:55;;;;;;;29.07;16.10;;;;;;;;;;4869067;29;32283;-67
2021/12/29 12:33:27;;;;;;;24.27;15.75;;;;;;;;;;4868083;29;35573;-66
2021/12/29 12:36:07;;;;;;;29.52;15.90;;;;;;;;;;4868569;29;32276;-64
2021/12/29 12:38:36;;;;;;;27.30;15.77;;;;;;;;;;4868438;29;32449;-66
2021/12/29 12:41:09;;;;;;;28.80;17.38;;;;;;;;;;4867948;29;32186;-66
2021/12/29 12:43:53;;;;;;;32.60;17.90;;;;;;;;;;4867986;29;34151;-65
2021/12/29 12:46:32;;;;;;;29.73;16.52;;;;;;;;;;4867268;29;32347;-67
2021/12/29 12:49:12;;;;;;;28.42;17.20;;;;;;;;;;4868883;29;32567;-66
2021/12/29 12:51:40;;;;;;;27.23;16.67;;;;;;;;;;4868058;29;32078;-65
2021/12/29 12:54:19;;;;;;;31.52;17.10;;;;;;;;;;4867566;29;32499;-64
2021/12/29 12:56:48;;;;;;;36.20;17.58;;;;;;;;;;4867960;29;34110;-65
2021/12/29 12:59:18;;;;;;;32.58;17.15;;;;;;;;;;4867302;29;32354;-65
2021/12/29 13:01:50;;;;;;;36.67;19.05;;;;;;;;;;4867240;29;32307;-68
2021/12/29 13:04:19;;;;;;;40.00;18.27;;;;;;;;;;4868625;29;32564;-66
2021/12/29 13:06:52;;;;;;;32.95;17.48;;;;;;;;;;4853218;29;35235;-66
2021/12/29 13:09:20;;;;;;;36.55;18.52;;;;;;;;;;4862507;29;32350;-66
2021/12/29 13:11:49;;;;;;;29.33;16.92;;;;;;;;;;4860863;29;32666;-65
2021/12/29 13:14:19;;;;;;;29.90;17.00;;;;;;;;;;4857445;29;32339;-66
2021/12/29 13:16:47;;;;;;;32.70;18.75;;;;;;;;;;4856542;29;32478;-66
2021/12/29 13:19:15;;;;;;;36.78;18.92;;;;;;;;;;4857790;29;32290;-68
2021/12/29 13:21:46;;;;;;;34.35;17.67;;;;;;;;;;4858446;29;32484;-70
2021/12/29 13:24:15;;;;;;;35.53;19.42;;;;;;;;;;4857893;29;32371;-69
2021/12/29 13:26:45;;;;;;;34.38;19.52;;;;;;;;;;4857160;29;32367;-67
2021/12/29 13:29:20;;;;;;;36.05;19.02;;;;;;;;;;4853319;29;35640;-65
2021/12/29 13:31:49;;;;;;;35.63;18.90;;;;;;;;;;4856712;29;32609;-68
2021/12/29 13:34:17;;;;;;;34.08;18.38;;;;;;;;;;4863300;29;32281;-67
2021/12/29 13:36:46;;;;;;;37.00;19.35;;;;;;;;;;4858424;29;32277;-66
2021/12/29 13:39:14;;;;;;;37.58;19.55;;;;;;;;;;4855310;29;32509;-67
2021/12/29 13:41:43;;;;;;;37.30;19.58;;;;;;;;;;4858032;29;32798;-70
2021/12/29 13:44:11;;;;;;;32.65;18.98;;;;;;;;;;4855803;29;32320;-68
2021/12/29 13:46:44;;;;;;;34.92;19.08;;;;;;;;;;4855232;29;32397;-66
2021/12/29 13:49:12;;;;;;;38.75;19.25;;;;;;;;;;4849439;29;32284;-68
2021/12/29 13:51:42;;;;;;;35.00;19.35;;;;;;;;;;4848819;29;34603;-65
2021/12/29 13:54:13;;;;;;;46.95;20.27;;;;;;;;;;4852349;29;32515;-66
2021/12/29 13:56:43;;;;;;;36.25;19.58;;;;;;;;;;4862233;29;32662;-68
2021/12/29 13:59:15;;;;;;;38.45;20.67;;;;;;;;;;4850572;29;32314;-67
2021/12/29 14:01:47;;;;;;;35.17;18.63;;;;;;;;;;4856243;29;32385;-66
2021/12/29 14:04:19;;;;;;;37.08;18.70;;;;;;;;;;4854530;29;32366;-69
2021/12/29 14:06:48;;;;;;;43.55;19.98;;;;;;;;;;4856594;29;32289;-66
2021/12/29 14:09:16;;;;;;;36.83;20.02;;;;;;;;;;4855336;29;32351;-64
2021/12/29 14:11:44;;;;;;;38.72;19.48;;;;;;;;;;4853184;29;32102;-66
2021/12/29 14:14:13;;;;;;;32.78;19.13;;;;;;;;;;4856692;29;33919;-67
2021/12/29 14:16:49;;;;;;;36.80;19.27;;;;;;;;;;4860779;29;32440;-67
2021/12/29 14:19:17;;;;;;;41.97;19.52;;;;;;;;;;4855413;29;32344;-65
2021/12/29 14:21:46;;;;;;;37.47;21.17;;;;;;;;;;4861769;29;32374;-63
2021/12/29 14:24:16;;;;;;;34.83;19.27;;;;;;;;;;4866883;29;32382;-66
2021/12/29 14:26:47;;;;;;;39.27;20.40;;;;;;;;;;4865649;28;32330;-67
2021/12/29 14:29:19;;;;;;;40.08;20.73;;;;;;;;;;4865922;29;32436;-65
2021/12/29 14:31:53;;;;;;;33.67;19.40;;;;;;;;;;4867321;29;32411;-70
2021/12/29 14:34:26;;;;;;;40.40;19.50;;;;;;;;;;4867150;29;32598;-66
2021/12/29 14:36:56;;;;;;;44.45;20.65;;;;;;;;;;4864946;29;33938;-65
2021/12/29 14:39:27;;;;;;;39.40;19.63;;;;;;;;;;4866245;29;32492;-66